Metar z połowy godziny Komunikat METAR ze strony awiacja.imgw.pl Metar G30 EPGD METAR EPGD 231230Z VRB04KT CAVOK 16/08 Q1009 =